createdAt,value
2017-12-27T00:00:24.820Z,6.47
2017-12-27T00:02:57.969Z,5.80
2017-12-27T00:08:34.190Z,5.57
2017-12-27T00:11:07.274Z,6.40
2017-12-27T00:13:40.340Z,5.60
2017-12-27T00:16:13.532Z,5.93
2017-12-27T00:18:46.608Z,26.33
2017-12-27T00:45:57.259Z,4.73
2017-12-27T00:48:24.679Z,4.27
2017-12-27T00:50:52.468Z,4.60
2017-12-27T00:53:19.895Z,4.20
2017-12-27T00:55:47.317Z,4.93
2017-12-27T00:58:14.741Z,4.93
2017-12-27T01:00:42.172Z,4.67
2017-12-27T01:03:09.599Z,4.53
2017-12-27T01:05:37.416Z,4.87
2017-12-27T01:08:04.834Z,4.90
2017-12-27T01:10:33.131Z,5.70
2017-12-27T01:13:00.551Z,5.80
2017-12-27T01:15:27.981Z,5.70
2017-12-27T01:17:55.422Z,5.63
2017-12-27T01:20:22.839Z,5.43
2017-12-27T01:22:50.260Z,6.40
2017-12-27T01:25:18.097Z,5.53
2017-12-27T01:27:45.663Z,5.43
2017-12-27T01:30:13.084Z,8.30
2017-12-27T01:32:40.515Z,6.00
2017-12-27T01:35:07.947Z,4.93
2017-12-27T01:37:35.771Z,4.93
2017-12-27T01:40:03.198Z,5.10
2017-12-27T01:42:30.750Z,4.77
2017-12-27T01:44:58.167Z,4.53
2017-12-27T01:47:25.590Z,4.00
2017-12-27T01:49:53.035Z,4.20
2017-12-27T01:52:20.466Z,4.50
2017-12-27T01:54:47.894Z,4.33
2017-12-27T01:57:15.727Z,4.83
2017-12-27T01:59:43.159Z,4.40
2017-12-27T02:02:10.579Z,4.60
2017-12-27T02:04:38.113Z,4.60
2017-12-27T02:07:05.539Z,4.33
2017-12-27T02:09:32.972Z,4.27
2017-12-27T02:12:00.407Z,4.30
2017-12-27T02:14:27.831Z,4.20
2017-12-27T02:16:55.660Z,4.40
2017-12-27T02:19:23.096Z,3.87
2017-12-27T02:21:50.514Z,4.03
2017-12-27T02:24:18.335Z,4.23
2017-12-27T02:26:45.775Z,4.50
2017-12-27T02:29:13.275Z,4.40
2017-12-27T02:31:41.106Z,4.10
2017-12-27T02:34:08.537Z,3.90
2017-12-27T02:36:36.207Z,4.30
2017-12-27T02:39:03.643Z,3.83
2017-12-27T02:41:31.071Z,4.13
2017-12-27T02:43:58.891Z,4.23
2017-12-27T02:46:26.316Z,4.13
2017-12-27T02:48:53.772Z,3.80
2017-12-27T02:51:21.200Z,4.00
2017-12-27T02:53:49.018Z,4.10
2017-12-27T02:56:16.515Z,4.10
2017-12-27T02:58:44.346Z,3.70
2017-12-27T03:01:11.765Z,4.00
2017-12-27T03:03:39.492Z,4.57
2017-12-27T03:06:06.926Z,4.23
2017-12-27T03:08:34.355Z,4.50
2017-12-27T03:11:01.800Z,5.43
2017-12-27T03:13:29.232Z,4.70
2017-12-27T03:15:56.665Z,5.47
2017-12-27T03:18:24.096Z,5.00
2017-12-27T03:20:51.522Z,5.50
2017-12-27T03:23:18.942Z,4.60
2017-12-27T03:25:46.394Z,5.03
2017-12-27T03:28:14.215Z,4.57
2017-12-27T03:30:41.648Z,4.77
2017-12-27T03:33:09.072Z,5.40
2017-12-27T03:35:36.893Z,4.37
2017-12-27T03:38:04.317Z,3.87
2017-12-27T03:40:31.759Z,4.30
2017-12-27T03:42:59.192Z,4.43
2017-12-27T03:45:27.016Z,4.23
2017-12-27T03:47:54.456Z,4.23
2017-12-27T03:50:21.878Z,3.53
2017-12-27T03:52:49.327Z,3.90
2017-12-27T03:55:17.136Z,3.87
2017-12-27T03:57:44.564Z,4.13
2017-12-27T04:00:12.003Z,3.70
2017-12-27T04:02:39.431Z,3.80
2017-12-27T04:05:06.867Z,3.87
2017-12-27T04:07:34.313Z,3.53
2017-12-27T04:10:02.795Z,3.73
2017-12-27T04:12:30.229Z,4.93
2017-12-27T04:14:57.666Z,3.35
2017-12-27T04:17:25.091Z,3.90
2017-12-27T04:19:52.510Z,3.30
2017-12-27T04:22:19.945Z,3.47
2017-12-27T04:24:47.371Z,3.60
2017-12-27T04:27:14.799Z,3.10
2017-12-27T04:29:42.239Z,3.07
2017-12-27T04:32:09.869Z,3.37
2017-12-27T04:34:37.295Z,3.57
2017-12-27T04:37:04.727Z,3.40
2017-12-27T04:39:32.168Z,3.23
2017-12-27T04:41:59.592Z,3.10
2017-12-27T04:44:27.022Z,3.20
2017-12-27T04:46:54.707Z,3.10
2017-12-27T04:49:22.139Z,2.90
2017-12-27T04:51:49.573Z,3.10
2017-12-27T04:54:17.411Z,3.27
2017-12-27T04:56:44.841Z,2.80
2017-12-27T04:59:12.269Z,2.63
2017-12-27T05:01:39.704Z,3.30
2017-12-27T05:04:07.527Z,3.40
2017-12-27T05:06:34.952Z,2.70
2017-12-27T05:09:02.407Z,3.63
2017-12-27T05:11:29.847Z,3.23
2017-12-27T05:13:57.270Z,3.47
2017-12-27T05:16:25.299Z,3.03
2017-12-27T05:18:52.726Z,3.60
2017-12-27T05:21:20.151Z,3.30
2017-12-27T05:23:48.097Z,3.27
2017-12-27T05:26:15.519Z,3.20
2017-12-27T05:28:42.943Z,3.10
2017-12-27T05:31:11.623Z,3.60
2017-12-27T05:33:39.447Z,3.27
2017-12-27T05:36:06.874Z,3.40
2017-12-27T05:38:34.336Z,3.40
2017-12-27T05:41:01.759Z,3.00
2017-12-27T05:43:29.183Z,3.60
2017-12-27T05:45:56.619Z,3.40
2017-12-27T05:48:24.056Z,3.10
2017-12-27T05:50:51.483Z,3.20
2017-12-27T05:53:18.922Z,2.80
2017-12-27T05:55:46.762Z,3.33
2017-12-27T05:58:14.190Z,3.13
2017-12-27T06:00:41.621Z,3.67
2017-12-27T06:03:10.220Z,3.40
2017-12-27T06:05:37.651Z,2.80
2017-12-27T06:08:05.074Z,3.23
2017-12-27T06:10:32.920Z,3.00
2017-12-27T06:13:00.342Z,2.90
2017-12-27T06:15:27.776Z,2.87
2017-12-27T06:17:55.195Z,3.27
2017-12-27T06:20:22.639Z,3.47
2017-12-27T06:22:50.063Z,3.67
2017-12-27T06:25:17.484Z,2.90
2017-12-27T06:27:44.914Z,3.40
2017-12-27T06:30:18.519Z,3.30
2017-12-27T06:32:46.371Z,3.13
2017-12-27T06:35:13.796Z,2.93
2017-12-27T06:37:41.222Z,3.37
2017-12-27T06:40:09.015Z,3.57
2017-12-27T06:42:36.455Z,2.90
2017-12-27T06:45:03.880Z,3.30
2017-12-27T06:47:31.325Z,3.23
2017-12-27T06:49:59.149Z,3.60
2017-12-27T06:52:26.574Z,3.50
2017-12-27T06:54:54.247Z,3.20
2017-12-27T06:57:21.683Z,3.50
2017-12-27T06:59:49.107Z,3.03
2017-12-27T07:02:16.930Z,3.17
2017-12-27T07:04:44.370Z,3.20
2017-12-27T07:07:11.811Z,3.53
2017-12-27T07:09:39.235Z,3.00
2017-12-27T07:12:07.053Z,3.10
2017-12-27T07:14:34.479Z,3.37
2017-12-27T07:17:01.912Z,2.80
2017-12-27T07:19:29.732Z,3.23
2017-12-27T07:21:57.175Z,3.30
2017-12-27T07:24:24.612Z,3.40
2017-12-27T07:26:52.036Z,3.43
2017-12-27T07:29:19.867Z,2.70
2017-12-27T07:31:47.302Z,2.90
2017-12-27T07:34:15.167Z,3.10
2017-12-27T07:36:42.595Z,3.53
2017-12-27T07:39:10.021Z,3.70
2017-12-27T07:41:37.459Z,3.17
2017-12-27T07:44:04.887Z,3.37
2017-12-27T07:46:32.312Z,3.67
2017-12-27T07:48:59.747Z,3.67
2017-12-27T07:51:27.574Z,4.90
2017-12-27T07:53:55.474Z,3.53
2017-12-27T07:56:23.591Z,3.30
2017-12-27T07:58:51.012Z,5.13
2017-12-27T08:01:18.444Z,3.60
2017-12-27T08:03:45.888Z,3.20
2017-12-27T08:06:13.316Z,3.60
2017-12-27T08:08:40.745Z,3.20
2017-12-27T08:11:08.171Z,3.20
2017-12-27T08:13:35.997Z,2.97
2017-12-27T08:16:03.445Z,3.60
2017-12-27T08:18:30.879Z,3.40
2017-12-27T08:20:58.303Z,3.70
2017-12-27T08:23:26.140Z,2.83
2017-12-27T08:25:53.571Z,3.20
2017-12-27T08:28:20.995Z,3.10
2017-12-27T08:30:48.439Z,3.00
2017-12-27T08:33:15.876Z,3.00
2017-12-27T08:35:43.308Z,2.90
2017-12-27T08:38:10.759Z,2.80
2017-12-27T08:40:38.190Z,2.97
2017-12-27T08:43:05.618Z,3.20
2017-12-27T08:45:33.064Z,3.13
2017-12-27T08:48:00.885Z,3.10
2017-12-27T08:50:28.321Z,3.17
2017-12-27T08:52:55.768Z,3.10
2017-12-27T08:55:23.203Z,3.50
2017-12-27T08:57:50.624Z,3.00
2017-12-27T09:00:18.052Z,3.20
2017-12-27T09:02:45.496Z,3.70
2017-12-27T09:05:12.919Z,3.23
2017-12-27T09:07:40.340Z,3.53
2017-12-27T09:10:07.786Z,3.57
2017-12-27T09:12:35.216Z,3.20
2017-12-27T09:15:02.644Z,3.00
2017-12-27T09:17:30.072Z,4.37
2017-12-27T09:19:57.895Z,3.43
2017-12-27T09:22:25.335Z,3.33
2017-12-27T09:24:52.793Z,3.50
2017-12-27T09:27:20.212Z,6.63
2017-12-27T09:29:48.028Z,2.77
2017-12-27T09:32:15.458Z,3.03
2017-12-27T09:34:42.877Z,3.00
2017-12-27T09:37:10.700Z,3.37
2017-12-27T09:39:38.142Z,3.37
2017-12-27T09:42:05.573Z,4.23
2017-12-27T09:44:33.004Z,3.10
2017-12-27T09:47:00.828Z,3.20
2017-12-27T09:49:28.252Z,3.73
2017-12-27T09:51:55.688Z,3.07
2017-12-27T09:54:23.502Z,3.80
2017-12-27T09:56:50.935Z,3.87
2017-12-27T09:59:18.378Z,3.20
2017-12-27T10:01:45.807Z,3.30
2017-12-27T10:04:13.626Z,3.57
2017-12-27T10:06:41.783Z,3.60
2017-12-27T10:09:09.212Z,3.00
2017-12-27T10:11:36.637Z,3.60
2017-12-27T10:14:04.080Z,3.07
2017-12-27T10:16:31.504Z,3.10
2017-12-27T10:18:58.936Z,3.17
2017-12-27T10:21:26.368Z,2.93
2017-12-27T10:23:54.212Z,3.20
2017-12-27T10:26:21.639Z,3.30
2017-12-27T10:28:49.064Z,3.30
2017-12-27T10:31:17.448Z,3.17
2017-12-27T10:33:44.872Z,3.07
2017-12-27T10:36:12.699Z,3.63
2017-12-27T10:38:40.130Z,3.10
2017-12-27T10:41:07.559Z,4.20
2017-12-27T10:43:34.988Z,3.73
2017-12-27T10:46:02.419Z,3.30
2017-12-27T10:48:29.851Z,4.00
2017-12-27T10:50:57.287Z,3.60
2017-12-27T10:53:24.712Z,3.67
2017-12-27T10:55:52.532Z,3.63
2017-12-27T10:58:19.963Z,3.40
2017-12-27T11:00:47.389Z,3.80
2017-12-27T11:03:15.219Z,3.50
2017-12-27T11:05:42.643Z,3.67
2017-12-27T11:08:10.080Z,3.33
2017-12-27T11:10:37.522Z,3.60
2017-12-27T11:13:05.346Z,3.30
2017-12-27T11:15:32.774Z,2.90
2017-12-27T11:18:00.235Z,3.40
2017-12-27T11:20:27.674Z,3.20
2017-12-27T11:22:55.100Z,3.10
2017-12-27T11:25:22.931Z,3.57
2017-12-27T11:27:50.568Z,3.23
2017-12-27T11:30:17.997Z,3.63
2017-12-27T11:32:45.416Z,4.10
2017-12-27T11:35:13.747Z,3.37
2017-12-27T11:37:41.170Z,3.67
2017-12-27T11:40:08.596Z,2.93
2017-12-27T11:42:36.027Z,3.60
2017-12-27T11:45:03.455Z,3.73
2017-12-27T11:47:30.896Z,3.80
2017-12-27T11:49:58.320Z,3.33
2017-12-27T11:52:25.747Z,3.60
2017-12-27T11:54:53.195Z,3.27
2017-12-27T11:57:20.629Z,4.27
2017-12-27T11:59:48.059Z,3.17
2017-12-27T12:02:15.905Z,3.83
2017-12-27T12:04:43.329Z,3.73
2017-12-27T12:07:10.751Z,3.43
2017-12-27T12:09:38.185Z,3.83
2017-12-27T12:12:06.005Z,3.43
2017-12-27T12:14:34.503Z,3.37
2017-12-27T12:17:01.946Z,3.87
2017-12-27T12:19:29.376Z,3.60
2017-12-27T12:21:56.808Z,3.43
2017-12-27T12:24:24.236Z,3.50
2017-12-27T12:26:52.067Z,3.43
2017-12-27T12:29:19.498Z,3.40
2017-12-27T12:31:46.920Z,3.63
2017-12-27T12:34:14.763Z,3.83
2017-12-27T12:36:42.183Z,4.17
2017-12-27T12:39:09.609Z,3.80
2017-12-27T12:41:37.052Z,3.97
2017-12-27T12:44:04.478Z,3.17
2017-12-27T12:46:31.900Z,3.40
2017-12-27T12:48:59.323Z,3.60
2017-12-27T12:51:26.747Z,3.50
2017-12-27T12:53:54.572Z,3.10
2017-12-27T12:56:21.997Z,3.30
2017-12-27T12:58:49.435Z,3.97
2017-12-27T13:01:17.260Z,3.77
2017-12-27T13:03:44.692Z,3.57
2017-12-27T13:06:12.138Z,3.30
2017-12-27T13:08:39.568Z,3.40
2017-12-27T13:11:07.403Z,3.17
2017-12-27T13:13:34.827Z,3.13
2017-12-27T13:16:02.252Z,3.40
2017-12-27T13:18:29.880Z,3.43
2017-12-27T13:20:57.702Z,3.87
2017-12-27T13:23:25.127Z,3.93
2017-12-27T13:25:52.583Z,3.87
2017-12-27T13:28:20.009Z,3.90
2017-12-27T13:30:47.435Z,4.67
2017-12-27T13:33:14.875Z,4.00
2017-12-27T13:35:42.311Z,4.30
2017-12-27T13:38:10.548Z,4.03
2017-12-27T13:40:38.396Z,4.27
2017-12-27T13:43:05.839Z,4.23
2017-12-27T13:45:33.276Z,6.70
2017-12-27T13:48:00.707Z,3.93
2017-12-27T13:50:28.139Z,3.20
2017-12-27T13:52:55.967Z,4.20
2017-12-27T13:55:23.397Z,3.70
2017-12-27T13:57:50.823Z,4.40
2017-12-27T14:00:18.257Z,3.50
2017-12-27T14:02:45.671Z,4.00
2017-12-27T14:05:13.104Z,3.90
2017-12-27T14:07:40.530Z,3.53
2017-12-27T14:10:08.355Z,4.10
2017-12-27T14:12:35.801Z,3.97
2017-12-27T14:15:03.219Z,4.00
2017-12-27T14:17:30.656Z,4.10
2017-12-27T14:19:58.503Z,3.50
2017-12-27T14:22:25.924Z,3.80
2017-12-27T14:24:53.348Z,3.93
2017-12-27T14:27:20.792Z,4.00
2017-12-27T14:29:48.602Z,4.00
2017-12-27T14:32:16.040Z,4.00
2017-12-27T14:34:43.477Z,4.27
2017-12-27T14:37:10.899Z,4.10
2017-12-27T14:39:38.714Z,4.10
2017-12-27T14:42:06.147Z,4.10
2017-12-27T14:44:33.577Z,4.10
2017-12-27T14:47:01.405Z,4.73
2017-12-27T14:49:28.976Z,4.30
2017-12-27T14:51:56.367Z,4.40
2017-12-27T14:54:24.201Z,4.27
2017-12-27T14:56:51.630Z,4.37
2017-12-27T14:59:19.283Z,4.30
2017-12-27T15:01:46.718Z,3.67
2017-12-27T15:04:14.138Z,3.67
2017-12-27T15:06:42.980Z,4.63
2017-12-27T15:09:10.398Z,4.50
2017-12-27T15:11:37.831Z,4.70
2017-12-27T15:14:05.957Z,5.03
2017-12-27T15:16:33.389Z,4.90
2017-12-27T15:19:00.812Z,4.80
2017-12-27T15:21:28.653Z,7.93
2017-12-27T15:23:56.084Z,4.20
2017-12-27T15:26:23.520Z,4.50
2017-12-27T15:28:50.947Z,4.93
2017-12-27T15:31:18.768Z,4.57
2017-12-27T15:33:46.523Z,4.57
2017-12-27T15:36:13.956Z,3.90
2017-12-27T15:38:41.387Z,4.10
2017-12-27T15:41:09.226Z,4.57
2017-12-27T15:43:36.661Z,4.40
2017-12-27T15:46:04.087Z,4.67
2017-12-27T15:48:31.529Z,4.50
2017-12-27T15:50:58.963Z,4.80
2017-12-27T15:53:26.783Z,5.00
2017-12-27T15:55:54.211Z,4.20
2017-12-27T15:58:21.644Z,4.30
2017-12-27T16:00:49.464Z,4.73
2017-12-27T16:03:17.169Z,4.63
2017-12-27T16:05:44.988Z,4.30
2017-12-27T16:08:12.431Z,4.67
2017-12-27T16:10:39.854Z,5.40
2017-12-27T16:13:07.283Z,4.37
2017-12-27T16:15:35.108Z,5.13
2017-12-27T16:18:02.549Z,4.83
2017-12-27T16:20:30.216Z,5.23
2017-12-27T16:22:57.643Z,4.93
2017-12-27T16:25:25.067Z,6.10
2017-12-27T16:27:53.193Z,5.87
2017-12-27T16:30:20.624Z,6.77
2017-12-27T16:32:48.048Z,4.70
2017-12-27T16:35:15.876Z,5.90
2017-12-27T16:37:43.315Z,6.67
2017-12-27T16:40:10.751Z,5.40
2017-12-27T16:42:38.204Z,5.80
2017-12-27T16:45:05.636Z,4.97
2017-12-27T16:47:33.061Z,7.80
2017-12-27T16:50:00.497Z,5.50
2017-12-27T16:52:27.948Z,5.20
2017-12-27T16:54:55.382Z,5.10
2017-12-27T16:57:22.811Z,5.53
2017-12-27T16:59:50.664Z,4.70
2017-12-27T17:02:18.088Z,4.57
2017-12-27T17:04:45.525Z,5.10
2017-12-27T17:07:12.963Z,6.20
2017-12-27T17:09:40.388Z,5.20
2017-12-27T17:12:08.211Z,4.30
2017-12-27T17:14:35.648Z,5.13
2017-12-27T17:17:03.080Z,5.53
2017-12-27T17:19:30.499Z,5.83
2017-12-27T17:21:57.931Z,4.80
2017-12-27T17:24:25.367Z,5.00
2017-12-27T17:26:53.756Z,5.63
2017-12-27T17:29:21.178Z,7.30
2017-12-27T17:31:48.607Z,6.03
2017-12-27T17:34:16.225Z,5.43
2017-12-27T17:36:43.987Z,6.47
2017-12-27T17:39:11.416Z,6.23
2017-12-27T17:41:38.843Z,6.50
2017-12-27T17:44:06.950Z,6.70
2017-12-27T17:46:34.319Z,6.30
2017-12-27T17:49:01.756Z,6.47
2017-12-27T17:51:30.080Z,5.50
2017-12-27T17:53:57.504Z,5.87
2017-12-27T17:56:24.934Z,5.57
2017-12-27T17:58:52.368Z,5.33
2017-12-27T18:01:20.187Z,6.43
2017-12-27T18:03:47.614Z,6.43
2017-12-27T18:06:15.051Z,6.20
2017-12-27T18:08:42.485Z,6.80
2017-12-27T18:11:10.306Z,6.83
2017-12-27T18:13:37.780Z,6.67
2017-12-27T18:16:05.211Z,8.10
2017-12-27T18:18:32.644Z,7.00
2017-12-27T18:21:00.099Z,8.60
2017-12-27T18:23:28.237Z,7.23
2017-12-27T18:25:56.063Z,7.40
2017-12-27T18:28:23.810Z,8.50
2017-12-27T18:30:51.248Z,8.80
2017-12-27T18:33:18.841Z,7.43
2017-12-27T18:35:46.268Z,8.90
2017-12-27T18:38:13.693Z,8.67
2017-12-27T18:40:41.562Z,8.27
2017-12-27T18:43:09.440Z,7.53
2017-12-27T18:45:36.880Z,7.67
2017-12-27T18:48:04.711Z,7.27
2017-12-27T18:50:32.167Z,8.13
2017-12-27T18:52:59.599Z,7.97
2017-12-27T18:55:27.052Z,7.67
2017-12-27T18:57:54.501Z,7.60
2017-12-27T19:00:21.930Z,8.90
2017-12-27T19:02:49.368Z,7.10
2017-12-27T19:05:16.800Z,7.80
2017-12-27T19:07:45.151Z,7.30
2017-12-27T19:10:12.595Z,8.27
2017-12-27T19:12:40.030Z,8.37
2017-12-27T19:15:07.504Z,8.67
2017-12-27T19:17:34.961Z,7.77
2017-12-27T19:20:02.764Z,8.17
2017-12-27T19:22:30.241Z,8.33
2017-12-27T19:24:58.767Z,8.30
2017-12-27T19:27:27.456Z,8.80
2017-12-27T19:29:54.927Z,7.90
2017-12-27T19:32:22.349Z,8.20
2017-12-27T19:34:49.822Z,9.10
2017-12-27T19:37:17.241Z,7.97
2017-12-27T19:39:44.694Z,8.60
2017-12-27T19:42:13.407Z,8.27
2017-12-27T19:44:40.835Z,9.23
2017-12-27T19:47:09.281Z,8.30
2017-12-27T19:49:36.735Z,7.97
2017-12-27T19:52:04.166Z,8.00
2017-12-27T19:54:31.595Z,10.20
2017-12-27T19:56:59.027Z,8.70
2017-12-27T19:59:26.472Z,8.93
2017-12-27T20:01:54.319Z,7.73
2017-12-27T20:04:21.754Z,8.70
2017-12-27T20:06:49.195Z,8.77
2017-12-27T20:09:16.635Z,8.97
2017-12-27T20:11:44.061Z,9.40
2017-12-27T20:14:11.504Z,9.07
2017-12-27T20:16:39.323Z,8.30
2017-12-27T20:19:06.753Z,9.17
2017-12-27T20:21:34.220Z,9.03
2017-12-27T20:24:01.656Z,9.20
2017-12-27T20:26:29.083Z,8.30
2017-12-27T20:28:57.208Z,9.33
2017-12-27T20:31:24.677Z,9.50
2017-12-27T20:33:52.124Z,8.73
2017-12-27T20:36:19.572Z,8.70
2017-12-27T20:38:47.013Z,9.30
2017-12-27T20:41:14.445Z,9.87
2017-12-27T20:43:42.960Z,10.80
2017-12-27T20:46:10.636Z,9.93
2017-12-27T20:48:38.057Z,9.00
2017-12-27T20:51:05.505Z,9.97
2017-12-27T20:53:32.931Z,9.37
2017-12-27T20:56:00.775Z,10.10
2017-12-27T20:58:28.471Z,9.70
2017-12-27T21:00:56.300Z,10.30
2017-12-27T21:03:23.815Z,9.53
2017-12-27T21:05:51.251Z,8.90
2017-12-27T21:08:18.694Z,10.10
2017-12-27T21:10:46.515Z,10.00
2017-12-27T21:13:13.952Z,9.73
2017-12-27T21:15:41.379Z,10.63
2017-12-27T21:18:08.807Z,10.20
2017-12-27T21:20:36.639Z,9.90
2017-12-27T21:23:04.291Z,8.90
2017-12-27T21:25:31.719Z,8.57
2017-12-27T21:27:59.156Z,9.10
2017-12-27T21:30:27.163Z,8.60
2017-12-27T21:32:54.589Z,9.33
2017-12-27T21:35:22.020Z,8.17
2017-12-27T21:37:49.857Z,8.80
2017-12-27T21:40:17.287Z,9.07
2017-12-27T21:42:44.740Z,9.73
2017-12-27T21:45:12.172Z,8.73
2017-12-27T21:50:32.275Z,8.83
2017-12-27T21:52:59.706Z,9.30
2017-12-27T21:55:27.536Z,8.90
2017-12-27T21:57:55.070Z,9.20
2017-12-27T22:00:28.267Z,9.30
2017-12-27T22:02:55.704Z,9.23
2017-12-27T22:05:23.131Z,9.87
2017-12-27T22:07:50.959Z,9.43
2017-12-27T22:10:18.428Z,9.40
2017-12-27T22:12:45.861Z,9.60
2017-12-27T22:15:13.869Z,10.17
2017-12-27T22:17:41.711Z,8.83
2017-12-27T22:20:14.953Z,9.10
2017-12-27T22:22:42.557Z,10.50
2017-12-27T22:25:09.987Z,11.30
2017-12-27T22:27:37.420Z,9.60
2017-12-27T22:30:04.966Z,9.67
2017-12-27T22:32:32.399Z,8.80
2017-12-27T22:35:00.227Z,10.10
2017-12-27T22:37:27.678Z,8.83
2017-12-27T22:39:55.104Z,8.93
2017-12-27T22:42:22.532Z,9.30
2017-12-27T22:44:50.368Z,9.13
2017-12-27T22:47:17.799Z,9.20
2017-12-27T22:49:45.232Z,8.70
2017-12-27T22:52:12.685Z,8.90
2017-12-27T22:54:40.111Z,8.53
2017-12-27T22:57:07.944Z,9.50
2017-12-27T22:59:35.363Z,9.67
2017-12-27T23:02:02.791Z,8.90
2017-12-27T23:04:30.647Z,9.87
2017-12-27T23:06:58.472Z,8.93
2017-12-27T23:09:25.910Z,9.10
2017-12-27T23:11:53.366Z,8.77
2017-12-27T23:14:20.792Z,9.00
2017-12-27T23:16:48.219Z,9.70
2017-12-27T23:19:15.943Z,8.40
2017-12-27T23:21:43.370Z,8.80
2017-12-27T23:24:10.815Z,8.17
2017-12-27T23:26:38.246Z,8.80
2017-12-27T23:29:05.672Z,9.83
2017-12-27T23:31:33.422Z,10.27
2017-12-27T23:34:00.854Z,9.87
2017-12-27T23:36:28.277Z,8.80
2017-12-27T23:38:56.376Z,9.00
2017-12-27T23:41:23.807Z,9.57
2017-12-27T23:43:51.636Z,8.90
2017-12-27T23:46:19.088Z,9.43
2017-12-27T23:48:46.527Z,9.00
2017-12-27T23:51:13.960Z,9.47
2017-12-27T23:53:41.423Z,9.17
2017-12-27T23:56:08.859Z,9.33
2017-12-27T23:58:36.291Z,9.53
